sensor_id;sensor_type;location;lat;lon;timestamp;P1;durP1;ratioP1;P2;durP2;ratioP2
5519;SDS011;2782;52.362;10.012;2023-02-11T00:00:02;10.30;;;5.45;;
5519;SDS011;2782;52.362;10.012;2023-02-11T00:01:05;7.90;;;5.15;;
5519;SDS011;2782;52.362;10.012;2023-02-11T00:02:07;8.75;;;4.57;;
5519;SDS011;2782;52.362;10.012;2023-02-11T00:03:08;8.90;;;4.73;;
5519;SDS011;2782;52.362;10.012;2023-02-11T00:04:10;7.38;;;4.55;;
5519;SDS011;2782;52.362;10.012;2023-02-11T00:05:10;8.83;;;4.70;;
5519;SDS011;2782;52.362;10.012;2023-02-11T00:06:12;7.45;;;4.00;;
5519;SDS011;2782;52.362;10.012;2023-02-11T00:07:13;9.90;;;4.68;;
5519;SDS011;2782;52.362;10.012;2023-02-11T00:08:15;13.70;;;5.18;;
5519;SDS011;2782;52.362;10.012;2023-02-11T00:09:15;9.93;;;5.17;;
5519;SDS011;2782;52.362;10.012;2023-02-11T00:10:18;8.45;;;4.70;;
5519;SDS011;2782;52.362;10.012;2023-02-11T00:11:20;8.38;;;5.10;;
5519;SDS011;2782;52.362;10.012;2023-02-11T00:12:24;9.60;;;5.10;;
5519;SDS011;2782;52.362;10.012;2023-02-11T00:13:25;8.68;;;4.20;;
5519;SDS011;2782;52.362;10.012;2023-02-11T00:14:27;7.47;;;4.32;;
5519;SDS011;2782;52.362;10.012;2023-02-11T00:15:27;7.93;;;4.37;;
5519;SDS011;2782;52.362;10.012;2023-02-11T00:16:29;8.05;;;3.92;;
5519;SDS011;2782;52.362;10.012;2023-02-11T00:17:31;6.22;;;4.28;;
5519;SDS011;2782;52.362;10.012;2023-02-11T00:18:33;7.53;;;4.57;;
5519;SDS011;2782;52.362;10.012;2023-02-11T00:19:35;5.82;;;4.45;;
5519;SDS011;2782;52.362;10.012;2023-02-11T00:20:37;7.63;;;4.32;;
5519;SDS011;2782;52.362;10.012;2023-02-11T00:21:38;7.68;;;4.55;;
5519;SDS011;2782;52.362;10.012;2023-02-11T00:22:40;9.55;;;4.68;;
5519;SDS011;2782;52.362;10.012;2023-02-11T00:23:41;9.13;;;5.10;;
5519;SDS011;2782;52.362;10.012;2023-02-11T00:24:43;9.80;;;5.00;;
5519;SDS011;2782;52.362;10.012;2023-02-11T00:25:45;9.60;;;4.80;;
5519;SDS011;2782;52.362;10.012;2023-02-11T00:26:47;8.93;;;4.38;;
5519;SDS011;2782;52.362;10.012;2023-02-11T00:27:47;5.30;;;4.07;;
5519;SDS011;2782;52.362;10.012;2023-02-11T00:28:51;6.35;;;3.72;;
5519;SDS011;2782;52.362;10.012;2023-02-11T00:29:52;8.38;;;4.00;;
5519;SDS011;2782;52.362;10.012;2023-02-11T00:30:54;6.85;;;4.60;;
5519;SDS011;2782;52.362;10.012;2023-02-11T00:31:55;10.15;;;4.93;;
5519;SDS011;2782;52.362;10.012;2023-02-11T00:32:57;7.32;;;4.70;;
5519;SDS011;2782;52.362;10.012;2023-02-11T00:33:57;5.93;;;4.30;;
5519;SDS011;2782;52.362;10.012;2023-02-11T00:34:59;7.40;;;4.55;;
5519;SDS011;2782;52.362;10.012;2023-02-11T00:36:02;7.83;;;4.50;;
5519;SDS011;2782;52.362;10.012;2023-02-11T00:37:05;6.60;;;4.63;;
5519;SDS011;2782;52.362;10.012;2023-02-11T00:38:05;8.40;;;3.97;;
5519;SDS011;2782;52.362;10.012;2023-02-11T00:39:07;7.13;;;4.28;;
5519;SDS011;2782;52.362;10.012;2023-02-11T00:40:08;6.53;;;3.90;;
5519;SDS011;2782;52.362;10.012;2023-02-11T00:41:12;6.05;;;4.60;;
5519;SDS011;2782;52.362;10.012;2023-02-11T00:42:13;9.85;;;4.55;;
5519;SDS011;2782;52.362;10.012;2023-02-11T00:43:15;6.15;;;4.25;;
5519;SDS011;2782;52.362;10.012;2023-02-11T00:44:16;6.40;;;4.23;;
5519;SDS011;2782;52.362;10.012;2023-02-11T00:45:18;14.90;;;4.43;;
5519;SDS011;2782;52.362;10.012;2023-02-11T00:46:20;9.10;;;4.88;;
5519;SDS011;2782;52.362;10.012;2023-02-11T00:47:22;6.43;;;4.78;;
5519;SDS011;2782;52.362;10.012;2023-02-11T00:48:22;8.20;;;4.20;;
5519;SDS011;2782;52.362;10.012;2023-02-11T00:49:24;6.53;;;4.95;;
5519;SDS011;2782;52.362;10.012;2023-02-11T00:50:24;6.00;;;4.20;;
5519;SDS011;2782;52.362;10.012;2023-02-11T00:51:27;5.47;;;3.75;;
5519;SDS011;2782;52.362;10.012;2023-02-11T00:52:28;8.00;;;4.00;;
5519;SDS011;2782;52.362;10.012;2023-02-11T00:53:29;7.30;;;4.30;;
5519;SDS011;2782;52.362;10.012;2023-02-11T00:54:31;7.05;;;4.18;;
5519;SDS011;2782;52.362;10.012;2023-02-11T00:55:31;5.40;;;4.73;;
5519;SDS011;2782;52.362;10.012;2023-02-11T00:56:35;7.05;;;4.07;;
5519;SDS011;2782;52.362;10.012;2023-02-11T00:57:35;7.32;;;4.75;;
5519;SDS011;2782;52.362;10.012;2023-02-11T00:58:37;7.28;;;4.07;;
5519;SDS011;2782;52.362;10.012;2023-02-11T00:59:38;6.87;;;4.40;;
5519;SDS011;2782;52.362;10.012;2023-02-11T01:00:40;5.80;;;4.15;;
5519;SDS011;2782;52.362;10.012;2023-02-11T01:01:40;10.00;;;4.20;;
5519;SDS011;2782;52.362;10.012;2023-02-11T01:02:42;7.93;;;5.00;;
5519;SDS011;2782;52.362;10.012;2023-02-11T01:03:42;6.37;;;4.07;;
5519;SDS011;2782;52.362;10.012;2023-02-11T01:04:44;6.68;;;4.75;;
5519;SDS011;2782;52.362;10.012;2023-02-11T01:05:45;6.70;;;4.47;;
5519;SDS011;2782;52.362;10.012;2023-02-11T01:06:46;6.35;;;4.45;;
5519;SDS011;2782;52.362;10.012;2023-02-11T01:07:47;6.10;;;4.30;;
5519;SDS011;2782;52.362;10.012;2023-02-11T01:08:49;5.68;;;4.07;;
5519;SDS011;2782;52.362;10.012;2023-02-11T01:09:49;10.00;;;4.40;;
5519;SDS011;2782;52.362;10.012;2023-02-11T01:10:55;6.25;;;4.07;;
5519;SDS011;2782;52.362;10.012;2023-02-11T01:11:57;5.75;;;4.20;;
5519;SDS011;2782;52.362;10.012;2023-02-11T01:12:59;7.68;;;4.50;;
5519;SDS011;2782;52.362;10.012;2023-02-11T01:14:00;7.00;;;4.10;;
5519;SDS011;2782;52.362;10.012;2023-02-11T01:15:02;6.80;;;4.55;;
5519;SDS011;2782;52.362;10.012;2023-02-11T01:16:05;5.82;;;4.60;;
5519;SDS011;2782;52.362;10.012;2023-02-11T01:17:07;5.18;;;4.10;;
5519;SDS011;2782;52.362;10.012;2023-02-11T01:18:08;6.90;;;4.30;;
5519;SDS011;2782;52.362;10.012;2023-02-11T01:19:10;7.10;;;4.28;;
5519;SDS011;2782;52.362;10.012;2023-02-11T01:20:12;7.10;;;4.13;;
5519;SDS011;2782;52.362;10.012;2023-02-11T01:21:15;7.40;;;4.50;;
5519;SDS011;2782;52.362;10.012;2023-02-11T01:22:16;5.27;;;4.30;;
5519;SDS011;2782;52.362;10.012;2023-02-11T01:23:17;5.80;;;4.50;;
5519;SDS011;2782;52.362;10.012;2023-02-11T01:24:18;6.70;;;4.47;;
5519;SDS011;2782;52.362;10.012;2023-02-11T01:25:20;6.25;;;4.20;;
5519;SDS011;2782;52.362;10.012;2023-02-11T01:26:20;6.33;;;4.30;;
5519;SDS011;2782;52.362;10.012;2023-02-11T01:27:23;9.15;;;4.82;;
5519;SDS011;2782;52.362;10.012;2023-02-11T01:28:26;6.00;;;4.00;;
5519;SDS011;2782;52.362;10.012;2023-02-11T01:29:28;6.50;;;4.70;;
5519;SDS011;2782;52.362;10.012;2023-02-11T01:30:29;8.93;;;4.37;;
5519;SDS011;2782;52.362;10.012;2023-02-11T01:31:31;4.45;;;3.63;;
5519;SDS011;2782;52.362;10.012;2023-02-11T01:32:32;8.20;;;4.63;;
5519;SDS011;2782;52.362;10.012;2023-02-11T01:33:34;4.18;;;3.78;;
5519;SDS011;2782;52.362;10.012;2023-02-11T01:34:34;5.97;;;4.00;;
5519;SDS011;2782;52.362;10.012;2023-02-11T01:35:36;5.00;;;3.83;;
5519;SDS011;2782;52.362;10.012;2023-02-11T01:36:37;6.22;;;4.10;;
5519;SDS011;2782;52.362;10.012;2023-02-11T01:37:39;6.70;;;4.50;;
5519;SDS011;2782;52.362;10.012;2023-02-11T01:38:40;6.25;;;3.80;;
5519;SDS011;2782;52.362;10.012;2023-02-11T01:39:43;5.60;;;4.18;;
5519;SDS011;2782;52.362;10.012;2023-02-11T01:40:47;5.60;;;4.37;;
5519;SDS011;2782;52.362;10.012;2023-02-11T01:41:50;5.50;;;4.20;;
5519;SDS011;2782;52.362;10.012;2023-02-11T01:42:52;5.27;;;4.00;;
5519;SDS011;2782;52.362;10.012;2023-02-11T01:43:53;7.70;;;4.70;;
5519;SDS011;2782;52.362;10.012;2023-02-11T01:44:56;7.70;;;4.17;;
5519;SDS011;2782;52.362;10.012;2023-02-11T01:46:00;5.55;;;4.00;;
5519;SDS011;2782;52.362;10.012;2023-02-11T01:47:04;7.18;;;4.13;;
5519;SDS011;2782;52.362;10.012;2023-02-11T01:48:06;7.22;;;5.28;;
5519;SDS011;2782;52.362;10.012;2023-02-11T01:49:08;5.95;;;4.25;;
5519;SDS011;2782;52.362;10.012;2023-02-11T01:50:12;5.20;;;4.30;;
5519;SDS011;2782;52.362;10.012;2023-02-11T01:51:14;6.50;;;4.60;;
5519;SDS011;2782;52.362;10.012;2023-02-11T01:52:20;6.82;;;4.70;;
5519;SDS011;2782;52.362;10.012;2023-02-11T01:53:25;8.40;;;4.18;;
5519;SDS011;2782;52.362;10.012;2023-02-11T01:54:47;6.78;;;4.40;;
5519;SDS011;2782;52.362;10.012;2023-02-11T01:56:10;6.20;;;4.10;;
5519;SDS011;2782;52.362;10.012;2023-02-11T01:57:31;5.97;;;4.40;;
5519;SDS011;2782;52.362;10.012;2023-02-11T01:58:36;7.15;;;4.68;;
5519;SDS011;2782;52.362;10.012;2023-02-11T01:59:42;8.20;;;4.95;;
5519;SDS011;2782;52.362;10.012;2023-02-11T02:00:47;6.95;;;4.75;;
5519;SDS011;2782;52.362;10.012;2023-02-11T02:01:49;7.20;;;4.57;;
5519;SDS011;2782;52.362;10.012;2023-02-11T02:02:57;5.95;;;4.32;;
5519;SDS011;2782;52.362;10.012;2023-02-11T02:04:02;5.22;;;3.60;;
5519;SDS011;2782;52.362;10.012;2023-02-11T02:05:07;5.95;;;4.10;;
5519;SDS011;2782;52.362;10.012;2023-02-11T02:06:18;6.80;;;5.20;;
5519;SDS011;2782;52.362;10.012;2023-02-11T02:07:27;5.85;;;4.60;;
5519;SDS011;2782;52.362;10.012;2023-02-11T02:08:33;4.97;;;4.32;;
5519;SDS011;2782;52.362;10.012;2023-02-11T02:09:39;5.32;;;3.83;;
5519;SDS011;2782;52.362;10.012;2023-02-11T02:10:46;6.60;;;4.63;;
5519;SDS011;2782;52.362;10.012;2023-02-11T02:11:49;6.45;;;4.35;;
5519;SDS011;2782;52.362;10.012;2023-02-11T02:12:51;5.60;;;4.38;;
5519;SDS011;2782;52.362;10.012;2023-02-11T02:13:53;7.00;;;4.53;;
5519;SDS011;2782;52.362;10.012;2023-02-11T02:15:09;5.75;;;4.28;;
5519;SDS011;2782;52.362;10.012;2023-02-11T02:16:20;10.25;;;4.47;;
5519;SDS011;2782;52.362;10.012;2023-02-11T02:17:27;6.38;;;4.32;;
5519;SDS011;2782;52.362;10.012;2023-02-11T02:18:39;6.60;;;4.68;;
5519;SDS011;2782;52.362;10.012;2023-02-11T02:19:58;5.85;;;4.63;;
5519;SDS011;2782;52.362;10.012;2023-02-11T02:21:28;4.65;;;4.15;;
5519;SDS011;2782;52.362;10.012;2023-02-11T02:22:52;5.97;;;4.75;;
5519;SDS011;2782;52.362;10.012;2023-02-11T02:24:13;7.65;;;4.70;;
5519;SDS011;2782;52.362;10.012;2023-02-11T02:27:02;6.95;;;4.55;;
5519;SDS011;2782;52.362;10.012;2023-02-11T02:28:22;6.97;;;4.93;;
5519;SDS011;2782;52.362;10.012;2023-02-11T02:29:50;5.35;;;4.03;;
5519;SDS011;2782;52.362;10.012;2023-02-11T02:31:22;5.18;;;4.07;;
5519;SDS011;2782;52.362;10.012;2023-02-11T02:32:49;4.53;;;3.75;;
5519;SDS011;2782;52.362;10.012;2023-02-11T02:33:58;6.25;;;4.45;;
5519;SDS011;2782;52.362;10.012;2023-02-11T02:35:03;6.55;;;4.45;;
5519;SDS011;2782;52.362;10.012;2023-02-11T02:36:13;6.88;;;4.60;;
5519;SDS011;2782;52.362;10.012;2023-02-11T02:37:19;5.57;;;4.55;;
5519;SDS011;2782;52.362;10.012;2023-02-11T02:38:26;6.80;;;4.68;;
5519;SDS011;2782;52.362;10.012;2023-02-11T02:39:33;5.95;;;4.43;;
5519;SDS011;2782;52.362;10.012;2023-02-11T02:40:37;6.38;;;4.85;;
5519;SDS011;2782;52.362;10.012;2023-02-11T02:41:44;5.05;;;4.30;;
5519;SDS011;2782;52.362;10.012;2023-02-11T02:42:47;5.00;;;4.35;;
5519;SDS011;2782;52.362;10.012;2023-02-11T02:43:50;6.50;;;4.50;;
5519;SDS011;2782;52.362;10.012;2023-02-11T02:44:52;5.50;;;4.30;;
5519;SDS011;2782;52.362;10.012;2023-02-11T02:46:07;6.80;;;4.53;;
5519;SDS011;2782;52.362;10.012;2023-02-11T02:47:09;7.30;;;4.18;;
5519;SDS011;2782;52.362;10.012;2023-02-11T02:48:23;5.78;;;4.60;;
5519;SDS011;2782;52.362;10.012;2023-02-11T02:49:25;6.00;;;4.22;;
5519;SDS011;2782;52.362;10.012;2023-02-11T02:50:29;5.68;;;4.32;;
5519;SDS011;2782;52.362;10.012;2023-02-11T02:53:13;6.93;;;4.55;;
5519;SDS011;2782;52.362;10.012;2023-02-11T02:54:34;5.80;;;4.25;;
5519;SDS011;2782;52.362;10.012;2023-02-11T02:55:55;5.32;;;4.20;;
5519;SDS011;2782;52.362;10.012;2023-02-11T02:57:05;5.95;;;4.25;;
5519;SDS011;2782;52.362;10.012;2023-02-11T02:59:45;5.40;;;4.20;;
5519;SDS011;2782;52.362;10.012;2023-02-11T03:00:52;5.38;;;3.92;;
5519;SDS011;2782;52.362;10.012;2023-02-11T03:02:05;5.80;;;4.75;;
5519;SDS011;2782;52.362;10.012;2023-02-11T03:03:20;5.18;;;4.55;;
5519;SDS011;2782;52.362;10.012;2023-02-11T03:04:30;6.75;;;4.30;;
5519;SDS011;2782;52.362;10.012;2023-02-11T03:05:40;5.38;;;4.32;;
5519;SDS011;2782;52.362;10.012;2023-02-11T03:06:50;5.25;;;3.97;;
5519;SDS011;2782;52.362;10.012;2023-02-11T03:07:57;5.38;;;4.15;;
5519;SDS011;2782;52.362;10.012;2023-02-11T03:09:03;4.88;;;3.80;;
5519;SDS011;2782;52.362;10.012;2023-02-11T03:10:10;5.85;;;4.60;;
5519;SDS011;2782;52.362;10.012;2023-02-11T03:11:16;8.55;;;4.70;;
5519;SDS011;2782;52.362;10.012;2023-02-11T03:12:19;5.50;;;4.25;;
5519;SDS011;2782;52.362;10.012;2023-02-11T03:13:23;4.82;;;4.03;;
5519;SDS011;2782;52.362;10.012;2023-02-11T03:14:27;4.75;;;4.22;;
5519;SDS011;2782;52.362;10.012;2023-02-11T03:15:31;8.07;;;4.82;;
5519;SDS011;2782;52.362;10.012;2023-02-11T03:16:36;4.25;;;3.53;;
5519;SDS011;2782;52.362;10.012;2023-02-11T03:17:40;6.55;;;5.07;;
5519;SDS011;2782;52.362;10.012;2023-02-11T03:18:46;5.28;;;4.13;;
5519;SDS011;2782;52.362;10.012;2023-02-11T03:19:50;4.22;;;3.83;;
5519;SDS011;2782;52.362;10.012;2023-02-11T03:20:51;5.70;;;4.32;;
5519;SDS011;2782;52.362;10.012;2023-02-11T03:21:54;4.90;;;4.40;;
5519;SDS011;2782;52.362;10.012;2023-02-11T03:22:57;4.82;;;4.22;;
5519;SDS011;2782;52.362;10.012;2023-02-11T03:24:05;5.30;;;4.10;;
5519;SDS011;2782;52.362;10.012;2023-02-11T03:25:07;5.65;;;4.35;;
5519;SDS011;2782;52.362;10.012;2023-02-11T03:26:11;5.22;;;4.10;;
5519;SDS011;2782;52.362;10.012;2023-02-11T03:27:17;6.38;;;4.28;;
5519;SDS011;2782;52.362;10.012;2023-02-11T03:28:27;5.40;;;4.00;;
5519;SDS011;2782;52.362;10.012;2023-02-11T03:29:31;7.65;;;4.65;;
5519;SDS011;2782;52.362;10.012;2023-02-11T03:30:38;5.38;;;4.75;;
5519;SDS011;2782;52.362;10.012;2023-02-11T03:31:46;6.78;;;4.25;;
5519;SDS011;2782;52.362;10.012;2023-02-11T03:32:56;5.50;;;4.00;;
5519;SDS011;2782;52.362;10.012;2023-02-11T03:34:05;5.30;;;4.28;;
5519;SDS011;2782;52.362;10.012;2023-02-11T03:35:13;4.45;;;4.00;;
5519;SDS011;2782;52.362;10.012;2023-02-11T03:36:18;6.07;;;4.70;;
5519;SDS011;2782;52.362;10.012;2023-02-11T03:37:24;6.35;;;4.75;;
5519;SDS011;2782;52.362;10.012;2023-02-11T03:38:29;5.35;;;4.30;;
5519;SDS011;2782;52.362;10.012;2023-02-11T03:39:37;5.78;;;4.45;;
5519;SDS011;2782;52.362;10.012;2023-02-11T03:40:41;4.38;;;3.97;;
5519;SDS011;2782;52.362;10.012;2023-02-11T03:41:44;7.32;;;3.97;;
5519;SDS011;2782;52.362;10.012;2023-02-11T03:42:48;4.85;;;4.30;;
5519;SDS011;2782;52.362;10.012;2023-02-11T03:43:54;7.93;;;4.18;;
5519;SDS011;2782;52.362;10.012;2023-02-11T03:44:57;5.60;;;4.20;;
5519;SDS011;2782;52.362;10.012;2023-02-11T03:46:04;5.07;;;4.28;;
5519;SDS011;2782;52.362;10.012;2023-02-11T03:47:06;4.55;;;4.13;;
5519;SDS011;2782;52.362;10.012;2023-02-11T03:48:10;5.32;;;4.47;;
5519;SDS011;2782;52.362;10.012;2023-02-11T03:49:16;4.20;;;3.80;;
5519;SDS011;2782;52.362;10.012;2023-02-11T03:50:20;5.38;;;4.53;;
5519;SDS011;2782;52.362;10.012;2023-02-11T03:51:22;5.85;;;3.90;;
5519;SDS011;2782;52.362;10.012;2023-02-11T03:52:26;8.38;;;4.70;;
5519;SDS011;2782;52.362;10.012;2023-02-11T03:53:27;6.23;;;4.50;;
5519;SDS011;2782;52.362;10.012;2023-02-11T03:54:29;5.75;;;4.35;;
5519;SDS011;2782;52.362;10.012;2023-02-11T03:55:30;6.30;;;4.35;;
5519;SDS011;2782;52.362;10.012;2023-02-11T03:56:35;6.22;;;4.78;;
5519;SDS011;2782;52.362;10.012;2023-02-11T03:57:40;7.13;;;4.30;;
5519;SDS011;2782;52.362;10.012;2023-02-11T03:58:42;5.13;;;4.00;;
5519;SDS011;2782;52.362;10.012;2023-02-11T03:59:50;5.65;;;4.82;;
5519;SDS011;2782;52.362;10.012;2023-02-11T04:00:55;6.22;;;4.63;;
5519;SDS011;2782;52.362;10.012;2023-02-11T04:01:56;6.50;;;5.13;;
5519;SDS011;2782;52.362;10.012;2023-02-11T04:02:58;6.28;;;4.10;;
5519;SDS011;2782;52.362;10.012;2023-02-11T04:03:59;7.63;;;4.83;;
5519;SDS011;2782;52.362;10.012;2023-02-11T04:05:02;5.47;;;4.38;;
5519;SDS011;2782;52.362;10.012;2023-02-11T04:06:04;4.78;;;3.70;;
5519;SDS011;2782;52.362;10.012;2023-02-11T04:07:06;4.82;;;3.80;;
5519;SDS011;2782;52.362;10.012;2023-02-11T04:08:06;7.53;;;4.60;;
5519;SDS011;2782;52.362;10.012;2023-02-11T04:09:08;6.45;;;4.70;;
5519;SDS011;2782;52.362;10.012;2023-02-11T04:10:10;6.38;;;3.95;;
5519;SDS011;2782;52.362;10.012;2023-02-11T04:11:12;5.05;;;3.85;;
5519;SDS011;2782;52.362;10.012;2023-02-11T04:12:13;5.40;;;4.53;;
5519;SDS011;2782;52.362;10.012;2023-02-11T04:13:14;4.20;;;3.80;;
5519;SDS011;2782;52.362;10.012;2023-02-11T04:14:15;5.20;;;4.10;;
5519;SDS011;2782;52.362;10.012;2023-02-11T04:15:16;7.65;;;4.22;;
5519;SDS011;2782;52.362;10.012;2023-02-11T04:16:18;7.70;;;4.13;;
5519;SDS011;2782;52.362;10.012;2023-02-11T04:17:19;5.20;;;4.18;;
5519;SDS011;2782;52.362;10.012;2023-02-11T04:18:20;5.20;;;4.10;;
5519;SDS011;2782;52.362;10.012;2023-02-11T04:19:21;4.10;;;3.70;;
5519;SDS011;2782;52.362;10.012;2023-02-11T04:20:23;7.27;;;4.00;;
5519;SDS011;2782;52.362;10.012;2023-02-11T04:21:25;6.82;;;4.20;;
5519;SDS011;2782;52.362;10.012;2023-02-11T04:22:26;5.30;;;4.07;;
5519;SDS011;2782;52.362;10.012;2023-02-11T04:23:27;4.88;;;4.00;;
5519;SDS011;2782;52.362;10.012;2023-02-11T04:24:28;5.00;;;4.20;;
5519;SDS011;2782;52.362;10.012;2023-02-11T04:25:29;4.55;;;3.75;;
5519;SDS011;2782;52.362;10.012;2023-02-11T04:26:30;5.90;;;4.73;;
5519;SDS011;2782;52.362;10.012;2023-02-11T04:27:32;5.45;;;3.75;;
5519;SDS011;2782;52.362;10.012;2023-02-11T04:28:33;5.17;;;4.10;;
5519;SDS011;2782;52.362;10.012;2023-02-11T04:29:35;5.03;;;4.20;;
5519;SDS011;2782;52.362;10.012;2023-02-11T04:30:35;5.40;;;3.93;;
5519;SDS011;2782;52.362;10.012;2023-02-11T04:31:37;8.43;;;4.82;;
5519;SDS011;2782;52.362;10.012;2023-02-11T04:32:38;5.67;;;4.23;;
5519;SDS011;2782;52.362;10.012;2023-02-11T04:33:39;5.78;;;4.93;;
5519;SDS011;2782;52.362;10.012;2023-02-11T04:34:40;5.93;;;4.97;;
5519;SDS011;2782;52.362;10.012;2023-02-11T04:35:43;5.85;;;4.05;;
5519;SDS011;2782;52.362;10.012;2023-02-11T04:36:44;5.15;;;3.95;;
5519;SDS011;2782;52.362;10.012;2023-02-11T04:37:46;5.35;;;4.47;;
5519;SDS011;2782;52.362;10.012;2023-02-11T04:38:46;4.70;;;4.03;;
5519;SDS011;2782;52.362;10.012;2023-02-11T04:39:49;7.00;;;4.43;;
5519;SDS011;2782;52.362;10.012;2023-02-11T04:40:50;6.53;;;4.32;;
5519;SDS011;2782;52.362;10.012;2023-02-11T04:41:52;6.20;;;4.57;;
5519;SDS011;2782;52.362;10.012;2023-02-11T04:42:52;4.90;;;4.40;;
5519;SDS011;2782;52.362;10.012;2023-02-11T04:43:54;5.65;;;4.25;;
5519;SDS011;2782;52.362;10.012;2023-02-11T04:44:54;5.17;;;4.00;;
5519;SDS011;2782;52.362;10.012;2023-02-11T04:45:56;5.30;;;4.40;;
5519;SDS011;2782;52.362;10.012;2023-02-11T04:46:57;6.53;;;4.32;;
5519;SDS011;2782;52.362;10.012;2023-02-11T04:48:00;7.18;;;5.07;;
5519;SDS011;2782;52.362;10.012;2023-02-11T04:49:01;4.30;;;3.53;;
5519;SDS011;2782;52.362;10.012;2023-02-11T04:50:02;5.13;;;4.13;;
5519;SDS011;2782;52.362;10.012;2023-02-11T04:51:05;5.07;;;4.50;;
5519;SDS011;2782;52.362;10.012;2023-02-11T04:52:06;5.60;;;4.65;;
5519;SDS011;2782;52.362;10.012;2023-02-11T04:53:07;4.95;;;3.75;;
5519;SDS011;2782;52.362;10.012;2023-02-11T04:54:09;4.82;;;4.07;;
5519;SDS011;2782;52.362;10.012;2023-02-11T04:55:10;5.32;;;4.03;;
5519;SDS011;2782;52.362;10.012;2023-02-11T04:56:12;5.28;;;4.68;;
5519;SDS011;2782;52.362;10.012;2023-02-11T04:57:13;5.10;;;3.80;;
5519;SDS011;2782;52.362;10.012;2023-02-11T04:58:14;5.03;;;4.18;;
5519;SDS011;2782;52.362;10.012;2023-02-11T04:59:15;4.47;;;3.47;;
5519;SDS011;2782;52.362;10.012;2023-02-11T05:00:17;4.45;;;4.03;;
5519;SDS011;2782;52.362;10.012;2023-02-11T05:01:18;5.10;;;4.60;;
5519;SDS011;2782;52.362;10.012;2023-02-11T05:02:19;6.05;;;4.30;;
5519;SDS011;2782;52.362;10.012;2023-02-11T05:03:20;5.33;;;3.63;;
5519;SDS011;2782;52.362;10.012;2023-02-11T05:04:22;4.38;;;3.90;;
5519;SDS011;2782;52.362;10.012;2023-02-11T05:05:22;5.30;;;4.43;;
5519;SDS011;2782;52.362;10.012;2023-02-11T05:06:25;3.88;;;3.40;;
5519;SDS011;2782;52.362;10.012;2023-02-11T05:07:26;5.55;;;4.03;;
5519;SDS011;2782;52.362;10.012;2023-02-11T05:08:27;5.28;;;4.05;;
5519;SDS011;2782;52.362;10.012;2023-02-11T05:09:28;5.07;;;4.13;;
5519;SDS011;2782;52.362;10.012;2023-02-11T05:10:29;5.05;;;4.05;;
5519;SDS011;2782;52.362;10.012;2023-02-11T05:11:30;5.50;;;4.47;;
5519;SDS011;2782;52.362;10.012;2023-02-11T05:12:32;4.80;;;3.53;;
5519;SDS011;2782;52.362;10.012;2023-02-11T05:13:32;5.83;;;4.20;;
5519;SDS011;2782;52.362;10.012;2023-02-11T05:14:34;5.95;;;3.55;;
5519;SDS011;2782;52.362;10.012;2023-02-11T05:15:35;7.10;;;4.40;;
5519;SDS011;2782;52.362;10.012;2023-02-11T05:16:36;6.00;;;4.47;;
5519;SDS011;2782;52.362;10.012;2023-02-11T05:17:37;5.77;;;4.10;;
5519;SDS011;2782;52.362;10.012;2023-02-11T05:18:39;4.88;;;4.35;;
5519;SDS011;2782;52.362;10.012;2023-02-11T05:19:41;5.07;;;4.10;;
5519;SDS011;2782;52.362;10.012;2023-02-11T05:20:42;4.30;;;3.75;;
5519;SDS011;2782;52.362;10.012;2023-02-11T05:21:45;4.80;;;3.60;;
5519;SDS011;2782;52.362;10.012;2023-02-11T05:22:46;5.15;;;3.65;;
5519;SDS011;2782;52.362;10.012;2023-02-11T05:23:47;6.00;;;4.23;;
5519;SDS011;2782;52.362;10.012;2023-02-11T05:24:49;4.50;;;3.88;;
5519;SDS011;2782;52.362;10.012;2023-02-11T05:25:49;5.00;;;3.87;;
5519;SDS011;2782;52.362;10.012;2023-02-11T05:26:51;4.13;;;3.72;;
5519;SDS011;2782;52.362;10.012;2023-02-11T05:27:51;5.90;;;3.97;;
5519;SDS011;2782;52.362;10.012;2023-02-11T05:28:53;4.68;;;3.72;;
5519;SDS011;2782;52.362;10.012;2023-02-11T05:29:54;4.70;;;3.70;;
5519;SDS011;2782;52.362;10.012;2023-02-11T05:30:55;4.13;;;3.65;;
5519;SDS011;2782;52.362;10.012;2023-02-11T05:31:57;5.70;;;4.20;;
5519;SDS011;2782;52.362;10.012;2023-02-11T05:32:59;5.00;;;3.30;;
5519;SDS011;2782;52.362;10.012;2023-02-11T05:33:59;4.20;;;3.80;;
5519;SDS011;2782;52.362;10.012;2023-02-11T05:35:03;4.85;;;3.50;;
5519;SDS011;2782;52.362;10.012;2023-02-11T05:36:05;3.55;;;3.25;;
5519;SDS011;2782;52.362;10.012;2023-02-11T05:37:10;5.60;;;3.25;;
5519;SDS011;2782;52.362;10.012;2023-02-11T05:38:10;5.95;;;3.45;;
5519;SDS011;2782;52.362;10.012;2023-02-11T05:39:12;3.85;;;3.28;;
5519;SDS011;2782;52.362;10.012;2023-02-11T05:40:13;4.00;;;3.33;;
5519;SDS011;2782;52.362;10.012;2023-02-11T05:41:14;3.85;;;3.40;;
5519;SDS011;2782;52.362;10.012;2023-02-11T05:42:15;4.03;;;3.30;;
5519;SDS011;2782;52.362;10.012;2023-02-11T05:43:17;4.47;;;3.22;;
5519;SDS011;2782;52.362;10.012;2023-02-11T05:44:17;4.40;;;3.00;;
5519;SDS011;2782;52.362;10.012;2023-02-11T05:45:19;6.78;;;3.42;;
5519;SDS011;2782;52.362;10.012;2023-02-11T05:46:20;4.23;;;3.40;;
5519;SDS011;2782;52.362;10.012;2023-02-11T05:47:21;4.20;;;2.70;;
5519;SDS011;2782;52.362;10.012;2023-02-11T05:48:22;3.90;;;2.80;;
5519;SDS011;2782;52.362;10.012;2023-02-11T05:49:23;3.20;;;2.78;;
5519;SDS011;2782;52.362;10.012;2023-02-11T05:50:24;3.57;;;2.70;;
5519;SDS011;2782;52.362;10.012;2023-02-11T05:51:26;4.43;;;3.30;;
5519;SDS011;2782;52.362;10.012;2023-02-11T05:52:28;3.10;;;2.50;;
5519;SDS011;2782;52.362;10.012;2023-02-11T05:53:29;3.50;;;2.92;;
5519;SDS011;2782;52.362;10.012;2023-02-11T05:54:30;3.10;;;2.80;;
5519;SDS011;2782;52.362;10.012;2023-02-11T05:55:32;3.30;;;3.00;;
5519;SDS011;2782;52.362;10.012;2023-02-11T05:56:32;3.90;;;2.60;;
5519;SDS011;2782;52.362;10.012;2023-02-11T05:57:34;3.83;;;2.58;;
5519;SDS011;2782;52.362;10.012;2023-02-11T05:58:35;3.80;;;2.90;;
5519;SDS011;2782;52.362;10.012;2023-02-11T05:59:37;2.83;;;2.53;;
5519;SDS011;2782;52.362;10.012;2023-02-11T06:00:38;3.47;;;2.70;;
5519;SDS011;2782;52.362;10.012;2023-02-11T06:01:40;3.42;;;2.80;;
5519;SDS011;2782;52.362;10.012;2023-02-11T06:02:41;2.72;;;2.10;;
5519;SDS011;2782;52.362;10.012;2023-02-11T06:03:43;3.80;;;2.80;;
5519;SDS011;2782;52.362;10.012;2023-02-11T06:04:43;3.13;;;2.53;;
5519;SDS011;2782;52.362;10.012;2023-02-11T06:05:45;3.65;;;2.40;;
5519;SDS011;2782;52.362;10.012;2023-02-11T06:06:46;2.30;;;2.10;;
5519;SDS011;2782;52.362;10.012;2023-02-11T06:07:49;2.10;;;1.92;;
5519;SDS011;2782;52.362;10.012;2023-02-11T06:08:51;2.90;;;2.10;;
5519;SDS011;2782;52.362;10.012;2023-02-11T06:09:52;2.58;;;2.38;;
5519;SDS011;2782;52.362;10.012;2023-02-11T06:10:53;3.80;;;2.20;;
5519;SDS011;2782;52.362;10.012;2023-02-11T06:11:54;2.03;;;1.92;;
5519;SDS011;2782;52.362;10.012;2023-02-11T06:12:55;4.23;;;2.43;;
5519;SDS011;2782;52.362;10.012;2023-02-11T06:13:57;2.35;;;2.17;;
5519;SDS011;2782;52.362;10.012;2023-02-11T06:14:57;2.03;;;1.93;;
5519;SDS011;2782;52.362;10.012;2023-02-11T06:15:59;2.42;;;2.20;;
5519;SDS011;2782;52.362;10.012;2023-02-11T06:17:01;2.10;;;2.00;;
5519;SDS011;2782;52.362;10.012;2023-02-11T06:18:03;3.35;;;2.30;;
5519;SDS011;2782;52.362;10.012;2023-02-11T06:19:04;2.35;;;2.05;;
5519;SDS011;2782;52.362;10.012;2023-02-11T06:20:06;3.38;;;2.50;;
5519;SDS011;2782;52.362;10.012;2023-02-11T06:21:09;3.88;;;1.85;;
5519;SDS011;2782;52.362;10.012;2023-02-11T06:22:12;2.45;;;2.25;;
5519;SDS011;2782;52.362;10.012;2023-02-11T06:23:13;2.30;;;2.10;;
5519;SDS011;2782;52.362;10.012;2023-02-11T06:24:15;2.47;;;2.28;;
5519;SDS011;2782;52.362;10.012;2023-02-11T06:25:16;2.17;;;1.80;;
5519;SDS011;2782;52.362;10.012;2023-02-11T06:26:18;2.60;;;1.90;;
5519;SDS011;2782;52.362;10.012;2023-02-11T06:27:21;2.67;;;2.15;;
5519;SDS011;2782;52.362;10.012;2023-02-11T06:28:23;2.55;;;1.95;;
5519;SDS011;2782;52.362;10.012;2023-02-11T06:29:23;2.77;;;2.13;;
5519;SDS011;2782;52.362;10.012;2023-02-11T06:30:25;2.65;;;1.95;;
5519;SDS011;2782;52.362;10.012;2023-02-11T06:31:26;4.80;;;2.43;;
5519;SDS011;2782;52.362;10.012;2023-02-11T06:32:28;2.35;;;1.80;;